sensor_id;sensor_type;location;lat;lon;timestamp;P1;durP1;ratioP1;P2;durP2;ratioP2
45236;SDS011;30973;51.442;3.580;2023-02-14T00:00:26;24.50;;;16.33;;
45236;SDS011;30973;51.442;3.580;2023-02-14T00:02:53;24.00;;;16.33;;
45236;SDS011;30973;51.442;3.580;2023-02-14T00:05:20;23.85;;;15.80;;
45236;SDS011;30973;51.442;3.580;2023-02-14T00:07:47;22.30;;;15.18;;
45236;SDS011;30973;51.442;3.580;2023-02-14T00:10:13;21.65;;;15.05;;
45236;SDS011;30973;51.442;3.580;2023-02-14T00:15:15;21.88;;;14.38;;
45236;SDS011;30973;51.442;3.580;2023-02-14T00:17:52;24.70;;;16.02;;
45236;SDS011;30973;51.442;3.580;2023-02-14T00:20:20;23.00;;;15.45;;
45236;SDS011;30973;51.442;3.580;2023-02-14T00:22:54;22.85;;;16.00;;
45236;SDS011;30973;51.442;3.580;2023-02-14T00:25:21;25.15;;;16.92;;
45236;SDS011;30973;51.442;3.580;2023-02-14T00:27:48;25.23;;;16.30;;
45236;SDS011;30973;51.442;3.580;2023-02-14T00:30:15;26.63;;;17.45;;
45236;SDS011;30973;51.442;3.580;2023-02-14T00:32:42;24.92;;;16.50;;
45236;SDS011;30973;51.442;3.580;2023-02-14T00:35:09;27.05;;;17.23;;
45236;SDS011;30973;51.442;3.580;2023-02-14T00:37:39;24.30;;;16.05;;
45236;SDS011;30973;51.442;3.580;2023-02-14T00:40:19;24.63;;;15.90;;
45236;SDS011;30973;51.442;3.580;2023-02-14T00:42:46;23.85;;;16.40;;
45236;SDS011;30973;51.442;3.580;2023-02-14T00:45:13;29.90;;;16.55;;
45236;SDS011;30973;51.442;3.580;2023-02-14T00:47:39;26.73;;;17.10;;
45236;SDS011;30973;51.442;3.580;2023-02-14T00:50:10;26.73;;;16.80;;
45236;SDS011;30973;51.442;3.580;2023-02-14T00:52:36;24.83;;;15.73;;
45236;SDS011;30973;51.442;3.580;2023-02-14T00:55:03;23.45;;;15.80;;
45236;SDS011;30973;51.442;3.580;2023-02-14T00:57:30;25.35;;;16.80;;
45236;SDS011;30973;51.442;3.580;2023-02-14T00:59:56;25.00;;;15.80;;
45236;SDS011;30973;51.442;3.580;2023-02-14T01:02:23;24.05;;;15.77;;
45236;SDS011;30973;51.442;3.580;2023-02-14T01:04:50;26.33;;;16.55;;
45236;SDS011;30973;51.442;3.580;2023-02-14T01:07:19;24.50;;;16.80;;
45236;SDS011;30973;51.442;3.580;2023-02-14T01:09:48;28.08;;;17.70;;
45236;SDS011;30973;51.442;3.580;2023-02-14T01:12:15;29.10;;;17.42;;
45236;SDS011;30973;51.442;3.580;2023-02-14T01:14:42;26.73;;;16.80;;
45236;SDS011;30973;51.442;3.580;2023-02-14T01:17:09;28.63;;;17.85;;
45236;SDS011;30973;51.442;3.580;2023-02-14T01:19:35;27.88;;;17.85;;
45236;SDS011;30973;51.442;3.580;2023-02-14T01:22:05;28.50;;;17.48;;
45236;SDS011;30973;51.442;3.580;2023-02-14T01:24:31;26.90;;;17.48;;
45236;SDS011;30973;51.442;3.580;2023-02-14T01:26:59;28.20;;;17.75;;
45236;SDS011;30973;51.442;3.580;2023-02-14T01:29:25;25.67;;;16.83;;
45236;SDS011;30973;51.442;3.580;2023-02-14T01:31:52;24.20;;;16.55;;
45236;SDS011;30973;51.442;3.580;2023-02-14T01:34:19;27.10;;;16.13;;
45236;SDS011;30973;51.442;3.580;2023-02-14T01:36:46;25.55;;;16.33;;
45236;SDS011;30973;51.442;3.580;2023-02-14T01:39:13;25.38;;;16.83;;
45236;SDS011;30973;51.442;3.580;2023-02-14T01:41:44;24.70;;;16.77;;
45236;SDS011;30973;51.442;3.580;2023-02-14T01:46:43;23.52;;;16.17;;
45236;SDS011;30973;51.442;3.580;2023-02-14T01:49:17;31.10;;;18.23;;
45236;SDS011;30973;51.442;3.580;2023-02-14T01:51:49;30.38;;;17.25;;
45236;SDS011;30973;51.442;3.580;2023-02-14T01:54:18;28.52;;;16.77;;
45236;SDS011;30973;51.442;3.580;2023-02-14T01:56:48;32.33;;;18.25;;
45236;SDS011;30973;51.442;3.580;2023-02-14T01:59:18;30.02;;;19.25;;
45236;SDS011;30973;51.442;3.580;2023-02-14T02:01:46;29.13;;;18.05;;
45236;SDS011;30973;51.442;3.580;2023-02-14T02:04:16;30.10;;;20.05;;
45236;SDS011;30973;51.442;3.580;2023-02-14T02:06:46;33.67;;;19.25;;
45236;SDS011;30973;51.442;3.580;2023-02-14T02:09:15;28.63;;;18.52;;
45236;SDS011;30973;51.442;3.580;2023-02-14T02:11:43;30.33;;;19.20;;
45236;SDS011;30973;51.442;3.580;2023-02-14T02:14:14;28.88;;;19.58;;
45236;SDS011;30973;51.442;3.580;2023-02-14T02:24:37;32.60;;;21.27;;
45236;SDS011;30973;51.442;3.580;2023-02-14T02:27:10;31.02;;;20.25;;
45236;SDS011;30973;51.442;3.580;2023-02-14T02:42:41;31.67;;;20.30;;
45236;SDS011;30973;51.442;3.580;2023-02-14T02:45:23;36.03;;;23.30;;
45236;SDS011;30973;51.442;3.580;2023-02-14T02:58:50;36.13;;;22.77;;
45236;SDS011;30973;51.442;3.580;2023-02-14T03:01:22;35.88;;;23.63;;
45236;SDS011;30973;51.442;3.580;2023-02-14T03:03:51;36.40;;;23.45;;
45236;SDS011;30973;51.442;3.580;2023-02-14T03:06:37;35.28;;;22.73;;
45236;SDS011;30973;51.442;3.580;2023-02-14T03:12:05;38.92;;;24.35;;
45236;SDS011;30973;51.442;3.580;2023-02-14T03:17:24;36.05;;;24.27;;
45236;SDS011;30973;51.442;3.580;2023-02-14T03:25:16;36.67;;;24.95;;
45236;SDS011;30973;51.442;3.580;2023-02-14T03:27:46;38.53;;;24.15;;
45236;SDS011;30973;51.442;3.580;2023-02-14T03:30:27;36.80;;;23.77;;
45236;SDS011;30973;51.442;3.580;2023-02-14T03:33:04;37.50;;;25.10;;
45236;SDS011;30973;51.442;3.580;2023-02-14T03:35:32;36.17;;;24.30;;
45236;SDS011;30973;51.442;3.580;2023-02-14T03:38:05;39.85;;;25.50;;
45236;SDS011;30973;51.442;3.580;2023-02-14T03:43:01;42.20;;;26.60;;
45236;SDS011;30973;51.442;3.580;2023-02-14T03:45:32;41.58;;;26.42;;
45236;SDS011;30973;51.442;3.580;2023-02-14T03:48:01;42.63;;;25.25;;
45236;SDS011;30973;51.442;3.580;2023-02-14T03:50:29;39.90;;;25.63;;
45236;SDS011;30973;51.442;3.580;2023-02-14T03:52:56;38.38;;;25.40;;
45236;SDS011;30973;51.442;3.580;2023-02-14T03:55:42;41.50;;;25.80;;
45236;SDS011;30973;51.442;3.580;2023-02-14T03:58:18;38.67;;;24.98;;
45236;SDS011;30973;51.442;3.580;2023-02-14T04:00:46;39.08;;;23.98;;
45236;SDS011;30973;51.442;3.580;2023-02-14T04:03:15;40.58;;;25.23;;
45236;SDS011;30973;51.442;3.580;2023-02-14T04:05:43;41.70;;;24.33;;
45236;SDS011;30973;51.442;3.580;2023-02-14T04:08:12;39.85;;;25.42;;
45236;SDS011;30973;51.442;3.580;2023-02-14T04:10:45;37.78;;;24.25;;
45236;SDS011;30973;51.442;3.580;2023-02-14T04:13:12;39.22;;;25.17;;
45236;SDS011;30973;51.442;3.580;2023-02-14T04:15:38;36.42;;;24.90;;
45236;SDS011;30973;51.442;3.580;2023-02-14T04:18:05;40.28;;;25.52;;
45236;SDS011;30973;51.442;3.580;2023-02-14T04:20:50;41.75;;;24.60;;
45236;SDS011;30973;51.442;3.580;2023-02-14T04:23:17;39.58;;;24.48;;
45236;SDS011;30973;51.442;3.580;2023-02-14T04:25:44;40.13;;;25.30;;
45236;SDS011;30973;51.442;3.580;2023-02-14T04:28:11;40.13;;;25.35;;
45236;SDS011;30973;51.442;3.580;2023-02-14T04:30:38;39.72;;;24.70;;
45236;SDS011;30973;51.442;3.580;2023-02-14T04:33:04;36.38;;;23.90;;
45236;SDS011;30973;51.442;3.580;2023-02-14T04:35:33;40.45;;;25.95;;
45236;SDS011;30973;51.442;3.580;2023-02-14T04:38:01;35.15;;;23.80;;
45236;SDS011;30973;51.442;3.580;2023-02-14T04:40:28;38.80;;;24.42;;
45236;SDS011;30973;51.442;3.580;2023-02-14T04:42:55;38.08;;;24.67;;
45236;SDS011;30973;51.442;3.580;2023-02-14T04:45:21;41.90;;;26.98;;
45236;SDS011;30973;51.442;3.580;2023-02-14T04:47:48;37.38;;;25.48;;
45236;SDS011;30973;51.442;3.580;2023-02-14T04:50:16;35.03;;;23.63;;
45236;SDS011;30973;51.442;3.580;2023-02-14T04:52:42;37.97;;;24.73;;
45236;SDS011;30973;51.442;3.580;2023-02-14T04:55:09;40.95;;;26.02;;
45236;SDS011;30973;51.442;3.580;2023-02-14T04:57:36;39.75;;;24.85;;
45236;SDS011;30973;51.442;3.580;2023-02-14T05:00:03;38.28;;;24.63;;
45236;SDS011;30973;51.442;3.580;2023-02-14T05:02:30;38.58;;;25.77;;
45236;SDS011;30973;51.442;3.580;2023-02-14T05:04:56;37.55;;;24.02;;
45236;SDS011;30973;51.442;3.580;2023-02-14T05:07:23;38.67;;;24.33;;
45236;SDS011;30973;51.442;3.580;2023-02-14T05:09:50;37.30;;;24.70;;
45236;SDS011;30973;51.442;3.580;2023-02-14T05:12:16;38.80;;;24.48;;
45236;SDS011;30973;51.442;3.580;2023-02-14T05:14:43;34.00;;;23.27;;
45236;SDS011;30973;51.442;3.580;2023-02-14T05:17:10;36.70;;;25.17;;
45236;SDS011;30973;51.442;3.580;2023-02-14T05:19:37;36.05;;;24.50;;
45236;SDS011;30973;51.442;3.580;2023-02-14T05:22:04;36.92;;;24.17;;
45236;SDS011;30973;51.442;3.580;2023-02-14T05:24:30;34.42;;;23.73;;
45236;SDS011;30973;51.442;3.580;2023-02-14T05:26:57;37.45;;;22.75;;
45236;SDS011;30973;51.442;3.580;2023-02-14T05:29:23;37.60;;;24.08;;
45236;SDS011;30973;51.442;3.580;2023-02-14T05:31:50;39.13;;;24.65;;
45236;SDS011;30973;51.442;3.580;2023-02-14T05:34:17;34.88;;;23.00;;
45236;SDS011;30973;51.442;3.580;2023-02-14T05:36:46;38.45;;;25.08;;
45236;SDS011;30973;51.442;3.580;2023-02-14T05:39:13;41.47;;;24.02;;
45236;SDS011;30973;51.442;3.580;2023-02-14T05:41:40;37.42;;;24.15;;
45236;SDS011;30973;51.442;3.580;2023-02-14T05:44:07;37.25;;;24.35;;
45236;SDS011;30973;51.442;3.580;2023-02-14T05:46:34;38.50;;;23.83;;
45236;SDS011;30973;51.442;3.580;2023-02-14T05:49:01;35.30;;;23.33;;
45236;SDS011;30973;51.442;3.580;2023-02-14T05:51:28;38.72;;;23.52;;
45236;SDS011;30973;51.442;3.580;2023-02-14T05:53:54;35.90;;;24.13;;
45236;SDS011;30973;51.442;3.580;2023-02-14T05:56:24;37.22;;;24.40;;
45236;SDS011;30973;51.442;3.580;2023-02-14T05:58:50;34.00;;;23.05;;
45236;SDS011;30973;51.442;3.580;2023-02-14T06:01:17;34.47;;;23.45;;
45236;SDS011;30973;51.442;3.580;2023-02-14T06:03:44;35.53;;;23.88;;
45236;SDS011;30973;51.442;3.580;2023-02-14T06:06:11;38.38;;;24.35;;
45236;SDS011;30973;51.442;3.580;2023-02-14T06:08:38;38.17;;;23.90;;
45236;SDS011;30973;51.442;3.580;2023-02-14T06:11:05;36.72;;;24.17;;
45236;SDS011;30973;51.442;3.580;2023-02-14T06:13:31;39.03;;;23.63;;
45236;SDS011;30973;51.442;3.580;2023-02-14T06:15:58;40.42;;;24.55;;
45236;SDS011;30973;51.442;3.580;2023-02-14T06:18:25;36.75;;;23.48;;
45236;SDS011;30973;51.442;3.580;2023-02-14T06:20:54;34.55;;;23.48;;
45236;SDS011;30973;51.442;3.580;2023-02-14T06:23:22;37.40;;;24.48;;
45236;SDS011;30973;51.442;3.580;2023-02-14T06:25:48;36.25;;;23.88;;
45236;SDS011;30973;51.442;3.580;2023-02-14T06:28:15;38.13;;;24.48;;
45236;SDS011;30973;51.442;3.580;2023-02-14T06:30:42;35.80;;;24.33;;
45236;SDS011;30973;51.442;3.580;2023-02-14T06:33:09;37.63;;;23.45;;
45236;SDS011;30973;51.442;3.580;2023-02-14T06:35:36;36.67;;;23.83;;
45236;SDS011;30973;51.442;3.580;2023-02-14T06:38:02;35.42;;;24.08;;
45236;SDS011;30973;51.442;3.580;2023-02-14T06:40:29;38.05;;;24.35;;
45236;SDS011;30973;51.442;3.580;2023-02-14T06:42:56;38.55;;;24.35;;
45236;SDS011;30973;51.442;3.580;2023-02-14T06:45:23;37.67;;;24.02;;
45236;SDS011;30973;51.442;3.580;2023-02-14T06:47:50;34.65;;;23.15;;
45236;SDS011;30973;51.442;3.580;2023-02-14T06:50:17;36.28;;;24.40;;
45236;SDS011;30973;51.442;3.580;2023-02-14T06:52:44;36.90;;;23.73;;
45236;SDS011;30973;51.442;3.580;2023-02-14T06:55:10;37.47;;;23.63;;
45236;SDS011;30973;51.442;3.580;2023-02-14T06:57:39;40.67;;;24.45;;
45236;SDS011;30973;51.442;3.580;2023-02-14T07:00:06;33.42;;;22.50;;
45236;SDS011;30973;51.442;3.580;2023-02-14T07:02:33;38.03;;;24.17;;
45236;SDS011;30973;51.442;3.580;2023-02-14T07:05:00;40.00;;;24.00;;
45236;SDS011;30973;51.442;3.580;2023-02-14T07:07:26;37.28;;;24.05;;
45236;SDS011;30973;51.442;3.580;2023-02-14T07:09:53;38.47;;;24.40;;
45236;SDS011;30973;51.442;3.580;2023-02-14T07:12:21;36.63;;;24.67;;
45236;SDS011;30973;51.442;3.580;2023-02-14T07:14:47;35.67;;;22.90;;
45236;SDS011;30973;51.442;3.580;2023-02-14T07:17:14;38.45;;;23.48;;
45236;SDS011;30973;51.442;3.580;2023-02-14T07:19:40;41.05;;;25.30;;
45236;SDS011;30973;51.442;3.580;2023-02-14T07:22:07;37.30;;;23.73;;
45236;SDS011;30973;51.442;3.580;2023-02-14T07:24:35;36.50;;;24.95;;
45236;SDS011;30973;51.442;3.580;2023-02-14T07:27:01;38.58;;;24.10;;
45236;SDS011;30973;51.442;3.580;2023-02-14T07:29:28;39.60;;;24.30;;
45236;SDS011;30973;51.442;3.580;2023-02-14T07:31:55;38.85;;;23.45;;
45236;SDS011;30973;51.442;3.580;2023-02-14T07:34:21;38.22;;;23.42;;
45236;SDS011;30973;51.442;3.580;2023-02-14T07:36:48;36.88;;;23.65;;
45236;SDS011;30973;51.442;3.580;2023-02-14T07:39:15;38.95;;;23.88;;
45236;SDS011;30973;51.442;3.580;2023-02-14T07:41:42;41.38;;;24.35;;
45236;SDS011;30973;51.442;3.580;2023-02-14T07:44:09;38.45;;;24.13;;
45236;SDS011;30973;51.442;3.580;2023-02-14T07:46:36;39.25;;;23.67;;
45236;SDS011;30973;51.442;3.580;2023-02-14T07:49:03;38.03;;;24.08;;
45236;SDS011;30973;51.442;3.580;2023-02-14T07:51:30;39.17;;;24.10;;
45236;SDS011;30973;51.442;3.580;2023-02-14T07:54:00;39.63;;;24.42;;
45236;SDS011;30973;51.442;3.580;2023-02-14T07:56:27;39.25;;;24.88;;
45236;SDS011;30973;51.442;3.580;2023-02-14T07:58:53;37.83;;;24.45;;
45236;SDS011;30973;51.442;3.580;2023-02-14T08:01:20;42.33;;;25.55;;
45236;SDS011;30973;51.442;3.580;2023-02-14T08:03:47;41.65;;;25.65;;
45236;SDS011;30973;51.442;3.580;2023-02-14T08:06:17;39.88;;;24.83;;
45236;SDS011;30973;51.442;3.580;2023-02-14T08:08:44;38.95;;;23.85;;
45236;SDS011;30973;51.442;3.580;2023-02-14T08:11:11;40.28;;;25.48;;
45236;SDS011;30973;51.442;3.580;2023-02-14T08:13:58;36.97;;;24.23;;
45236;SDS011;30973;51.442;3.580;2023-02-14T08:16:24;38.45;;;24.27;;
45236;SDS011;30973;51.442;3.580;2023-02-14T08:18:53;41.00;;;25.77;;
45236;SDS011;30973;51.442;3.580;2023-02-14T08:21:20;38.25;;;24.13;;
45236;SDS011;30973;51.442;3.580;2023-02-14T08:23:47;38.25;;;24.67;;
45236;SDS011;30973;51.442;3.580;2023-02-14T08:26:13;40.17;;;24.27;;
45236;SDS011;30973;51.442;3.580;2023-02-14T08:28:40;40.22;;;24.52;;
45236;SDS011;30973;51.442;3.580;2023-02-14T08:31:07;39.05;;;24.63;;
45236;SDS011;30973;51.442;3.580;2023-02-14T08:33:34;39.35;;;26.02;;
45236;SDS011;30973;51.442;3.580;2023-02-14T08:36:01;35.17;;;22.90;;
45236;SDS011;30973;51.442;3.580;2023-02-14T08:38:28;37.45;;;25.35;;
45236;SDS011;30973;51.442;3.580;2023-02-14T08:40:59;34.58;;;24.02;;
45236;SDS011;30973;51.442;3.580;2023-02-14T08:43:27;38.50;;;23.40;;
45236;SDS011;30973;51.442;3.580;2023-02-14T08:45:54;37.65;;;24.65;;
45236;SDS011;30973;51.442;3.580;2023-02-14T08:48:20;38.03;;;24.45;;
45236;SDS011;30973;51.442;3.580;2023-02-14T08:50:49;38.90;;;24.45;;
45236;SDS011;30973;51.442;3.580;2023-02-14T08:53:15;40.13;;;24.85;;
45236;SDS011;30973;51.442;3.580;2023-02-14T08:55:42;37.03;;;24.67;;
45236;SDS011;30973;51.442;3.580;2023-02-14T08:58:09;39.78;;;25.35;;
45236;SDS011;30973;51.442;3.580;2023-02-14T09:00:36;36.45;;;24.25;;
45236;SDS011;30973;51.442;3.580;2023-02-14T09:03:07;37.72;;;25.15;;
45236;SDS011;30973;51.442;3.580;2023-02-14T09:05:34;36.90;;;24.00;;
45236;SDS011;30973;51.442;3.580;2023-02-14T09:08:01;35.08;;;24.08;;
45236;SDS011;30973;51.442;3.580;2023-02-14T09:10:28;35.63;;;24.10;;
45236;SDS011;30973;51.442;3.580;2023-02-14T09:12:55;38.45;;;25.67;;
45236;SDS011;30973;51.442;3.580;2023-02-14T09:15:21;36.53;;;23.67;;
45236;SDS011;30973;51.442;3.580;2023-02-14T09:17:48;37.92;;;24.00;;
45236;SDS011;30973;51.442;3.580;2023-02-14T09:20:16;35.45;;;23.77;;
45236;SDS011;30973;51.442;3.580;2023-02-14T09:22:43;37.03;;;25.00;;
45236;SDS011;30973;51.442;3.580;2023-02-14T09:25:14;36.20;;;23.42;;
45236;SDS011;30973;51.442;3.580;2023-02-14T09:27:41;36.65;;;24.25;;
45236;SDS011;30973;51.442;3.580;2023-02-14T09:30:08;35.10;;;24.38;;
45236;SDS011;30973;51.442;3.580;2023-02-14T09:32:34;37.15;;;24.13;;
45236;SDS011;30973;51.442;3.580;2023-02-14T09:35:01;35.45;;;24.05;;
45236;SDS011;30973;51.442;3.580;2023-02-14T09:40:31;32.15;;;22.88;;
45236;SDS011;30973;51.442;3.580;2023-02-14T09:45:28;35.53;;;25.23;;
45236;SDS011;30973;51.442;3.580;2023-02-14T09:50:32;39.58;;;25.20;;
45236;SDS011;30973;51.442;3.580;2023-02-14T09:55:42;35.25;;;24.33;;
45236;SDS011;30973;51.442;3.580;2023-02-14T09:58:15;35.55;;;25.75;;
45236;SDS011;30973;51.442;3.580;2023-02-14T10:00:45;37.20;;;25.35;;
45236;SDS011;30973;51.442;3.580;2023-02-14T10:03:28;35.75;;;25.17;;
45236;SDS011;30973;51.442;3.580;2023-02-14T10:06:02;34.60;;;23.45;;
45236;SDS011;30973;51.442;3.580;2023-02-14T10:08:36;34.28;;;24.40;;
45236;SDS011;30973;51.442;3.580;2023-02-14T10:11:06;37.33;;;25.83;;
45236;SDS011;30973;51.442;3.580;2023-02-14T10:13:48;35.10;;;25.58;;
45236;SDS011;30973;51.442;3.580;2023-02-14T10:16:26;35.85;;;24.65;;
45236;SDS011;30973;51.442;3.580;2023-02-14T10:18:56;35.80;;;24.02;;
45236;SDS011;30973;51.442;3.580;2023-02-14T10:21:47;34.53;;;24.40;;
45236;SDS011;30973;51.442;3.580;2023-02-14T10:26:54;36.25;;;25.25;;
45236;SDS011;30973;51.442;3.580;2023-02-14T10:29:23;34.60;;;24.90;;
45236;SDS011;30973;51.442;3.580;2023-02-14T10:31:51;37.80;;;26.38;;
45236;SDS011;30973;51.442;3.580;2023-02-14T10:34:34;36.47;;;25.67;;
45236;SDS011;30973;51.442;3.580;2023-02-14T10:42:16;38.22;;;25.75;;
45236;SDS011;30973;51.442;3.580;2023-02-14T10:49:56;36.35;;;25.73;;
45236;SDS011;30973;51.442;3.580;2023-02-14T10:52:28;35.70;;;24.75;;
45236;SDS011;30973;51.442;3.580;2023-02-14T10:55:01;34.60;;;24.15;;
45236;SDS011;30973;51.442;3.580;2023-02-14T10:57:35;36.97;;;26.80;;
45236;SDS011;30973;51.442;3.580;2023-02-14T11:02:40;35.13;;;25.50;;
45236;SDS011;30973;51.442;3.580;2023-02-14T11:05:14;38.60;;;26.35;;
45236;SDS011;30973;51.442;3.580;2023-02-14T11:07:44;36.65;;;26.02;;
45236;SDS011;30973;51.442;3.580;2023-02-14T11:10:11;38.00;;;26.67;;
45236;SDS011;30973;51.442;3.580;2023-02-14T11:12:40;37.03;;;27.38;;
45236;SDS011;30973;51.442;3.580;2023-02-14T11:15:24;37.47;;;26.77;;
45236;SDS011;30973;51.442;3.580;2023-02-14T11:18:12;40.28;;;28.27;;
45236;SDS011;30973;51.442;3.580;2023-02-14T11:20:41;35.47;;;26.35;;
45236;SDS011;30973;51.442;3.580;2023-02-14T11:23:22;39.72;;;27.10;;
45236;SDS011;30973;51.442;3.580;2023-02-14T11:25:50;34.90;;;26.30;;
45236;SDS011;30973;51.442;3.580;2023-02-14T11:28:17;38.08;;;27.15;;
45236;SDS011;30973;51.442;3.580;2023-02-14T11:30:45;38.45;;;27.35;;
45236;SDS011;30973;51.442;3.580;2023-02-14T11:35:58;39.38;;;28.25;;
45236;SDS011;30973;51.442;3.580;2023-02-14T11:38:27;39.35;;;27.60;;
45236;SDS011;30973;51.442;3.580;2023-02-14T11:40:56;38.50;;;27.73;;
45236;SDS011;30973;51.442;3.580;2023-02-14T11:43:43;40.38;;;27.05;;
45236;SDS011;30973;51.442;3.580;2023-02-14T11:48:38;37.30;;;26.73;;
45236;SDS011;30973;51.442;3.580;2023-02-14T11:51:23;39.97;;;27.73;;
45236;SDS011;30973;51.442;3.580;2023-02-14T11:53:55;41.60;;;28.95;;
45236;SDS011;30973;51.442;3.580;2023-02-14T11:59:09;41.17;;;29.02;;
45236;SDS011;30973;51.442;3.580;2023-02-14T12:01:37;42.58;;;29.55;;
45236;SDS011;30973;51.442;3.580;2023-02-14T12:04:05;38.33;;;27.98;;
45236;SDS011;30973;51.442;3.580;2023-02-14T12:06:33;39.95;;;29.05;;
45236;SDS011;30973;51.442;3.580;2023-02-14T12:09:24;38.90;;;28.55;;
45236;SDS011;30973;51.442;3.580;2023-02-14T12:11:55;39.72;;;27.60;;
45236;SDS011;30973;51.442;3.580;2023-02-14T12:14:43;40.97;;;29.47;;
45236;SDS011;30973;51.442;3.580;2023-02-14T12:22:42;38.85;;;29.25;;
45236;SDS011;30973;51.442;3.580;2023-02-14T12:25:16;41.80;;;28.20;;
45236;SDS011;30973;51.442;3.580;2023-02-14T12:30:11;40.63;;;29.13;;
45236;SDS011;30973;51.442;3.580;2023-02-14T12:32:47;43.83;;;28.90;;
45236;SDS011;30973;51.442;3.580;2023-02-14T12:35:19;37.50;;;28.17;;
45236;SDS011;30973;51.442;3.580;2023-02-14T12:40:32;40.75;;;29.58;;
45236;SDS011;30973;51.442;3.580;2023-02-14T12:54:03;38.92;;;28.98;;
45236;SDS011;30973;51.442;3.580;2023-02-14T12:59:27;38.08;;;28.02;;
45236;SDS011;30973;51.442;3.580;2023-02-14T13:12:13;38.72;;;29.33;;
45236;SDS011;30973;51.442;3.580;2023-02-14T13:14:45;41.85;;;29.05;;
45236;SDS011;30973;51.442;3.580;2023-02-14T13:25:05;38.60;;;27.65;;
45236;SDS011;30973;51.442;3.580;2023-02-14T13:27:38;37.95;;;27.77;;
45236;SDS011;30973;51.442;3.580;2023-02-14T13:30:10;38.55;;;27.88;;
45236;SDS011;30973;51.442;3.580;2023-02-14T13:32:41;38.85;;;28.35;;
45236;SDS011;30973;51.442;3.580;2023-02-14T13:35:13;41.45;;;27.67;;
45236;SDS011;30973;51.442;3.580;2023-02-14T13:40:18;41.92;;;28.65;;
45236;SDS011;30973;51.442;3.580;2023-02-14T13:50:26;39.55;;;27.85;;
45236;SDS011;30973;51.442;3.580;2023-02-14T13:52:53;39.50;;;28.08;;
45236;SDS011;30973;51.442;3.580;2023-02-14T13:55:22;41.25;;;27.20;;
45236;SDS011;30973;51.442;3.580;2023-02-14T13:58:05;37.60;;;27.95;;
45236;SDS011;30973;51.442;3.580;2023-02-14T14:00:42;37.10;;;26.70;;
45236;SDS011;30973;51.442;3.580;2023-02-14T14:03:57;38.72;;;27.13;;
45236;SDS011;30973;51.442;3.580;2023-02-14T14:10:56;39.70;;;28.75;;
45236;SDS011;30973;51.442;3.580;2023-02-14T14:24:26;41.28;;;28.17;;
45236;SDS011;30973;51.442;3.580;2023-02-14T14:26:57;37.80;;;28.33;;
45236;SDS011;30973;51.442;3.580;2023-02-14T14:29:33;39.67;;;28.90;;
45236;SDS011;30973;51.442;3.580;2023-02-14T14:32:07;42.15;;;29.05;;
45236;SDS011;30973;51.442;3.580;2023-02-14T14:34:34;38.42;;;29.15;;
45236;SDS011;30973;51.442;3.580;2023-02-14T14:37:15;37.67;;;27.63;;
45236;SDS011;30973;51.442;3.580;2023-02-14T14:39:48;39.65;;;29.60;;
45236;SDS011;30973;51.442;3.580;2023-02-14T14:42:15;37.47;;;27.80;;
45236;SDS011;30973;51.442;3.580;2023-02-14T14:44:49;40.58;;;29.42;;
45236;SDS011;30973;51.442;3.580;2023-02-14T14:47:18;37.80;;;28.83;;
45236;SDS011;30973;51.442;3.580;2023-02-14T14:49:46;40.40;;;29.25;;
45236;SDS011;30973;51.442;3.580;2023-02-14T14:52:25;38.03;;;28.58;;
45236;SDS011;30973;51.442;3.580;2023-02-14T14:54:53;40.15;;;28.30;;
45236;SDS011;30973;51.442;3.580;2023-02-14T14:57:20;40.90;;;29.38;;
45236;SDS011;30973;51.442;3.580;2023-02-14T14:59:47;42.80;;;30.67;;
45236;SDS011;30973;51.442;3.580;2023-02-14T15:02:22;39.22;;;28.63;;
45236;SDS011;30973;51.442;3.580;2023-02-14T15:04:49;42.78;;;29.52;;
45236;SDS011;30973;51.442;3.580;2023-02-14T15:07:26;42.22;;;30.77;;
45236;SDS011;30973;51.442;3.580;2023-02-14T15:09:53;40.40;;;29.92;;
45236;SDS011;30973;51.442;3.580;2023-02-14T15:12:21;40.03;;;28.80;;
45236;SDS011;30973;51.442;3.580;2023-02-14T15:15:09;44.40;;;29.00;;
45236;SDS011;30973;51.442;3.580;2023-02-14T15:17:36;42.95;;;29.92;;
45236;SDS011;30973;51.442;3.580;2023-02-14T15:20:06;45.47;;;31.15;;
45236;SDS011;30973;51.442;3.580;2023-02-14T15:25:06;45.42;;;29.85;;
45236;SDS011;30973;51.442;3.580;2023-02-14T15:27:35;41.08;;;30.85;;
45236;SDS011;30973;51.442;3.580;2023-02-14T15:30:07;40.97;;;30.33;;
45236;SDS011;30973;51.442;3.580;2023-02-14T15:32:36;41.83;;;29.92;;
45236;SDS011;30973;51.442;3.580;2023-02-14T15:35:04;39.97;;;29.73;;
45236;SDS011;30973;51.442;3.580;2023-02-14T15:37:31;43.28;;;30.52;;
45236;SDS011;30973;51.442;3.580;2023-02-14T15:39:58;42.58;;;30.42;;
45236;SDS011;30973;51.442;3.580;2023-02-14T15:42:26;42.53;;;29.33;;
45236;SDS011;30973;51.442;3.580;2023-02-14T15:47:41;42.13;;;29.77;;
45236;SDS011;30973;51.442;3.580;2023-02-14T15:50:19;38.60;;;28.05;;
45236;SDS011;30973;51.442;3.580;2023-02-14T15:52:46;42.75;;;30.65;;
45236;SDS011;30973;51.442;3.580;2023-02-14T15:55:15;41.00;;;29.45;;
45236;SDS011;30973;51.442;3.580;2023-02-14T15:57:43;41.95;;;29.55;;
45236;SDS011;30973;51.442;3.580;2023-02-14T16:00:15;42.17;;;29.80;;
45236;SDS011;30973;51.442;3.580;2023-02-14T16:02:42;50.53;;;32.45;;
45236;SDS011;30973;51.442;3.580;2023-02-14T16:05:16;44.72;;;30.20;;
45236;SDS011;30973;51.442;3.580;2023-02-14T16:10:35;43.00;;;29.27;;
45236;SDS011;30973;51.442;3.580;2023-02-14T16:13:06;42.67;;;29.90;;
45236;SDS011;30973;51.442;3.580;2023-02-14T16:16:04;41.63;;;30.02;;
45236;SDS011;30973;51.442;3.580;2023-02-14T16:23:35;42.83;;;30.33;;
45236;SDS011;30973;51.442;3.580;2023-02-14T16:26:06;42.83;;;30.50;;
45236;SDS011;30973;51.442;3.580;2023-02-14T16:28:33;44.60;;;31.13;;
45236;SDS011;30973;51.442;3.580;2023-02-14T16:31:02;45.08;;;30.48;;
45236;SDS011;30973;51.442;3.580;2023-02-14T16:33:31;52.35;;;31.55;;
45236;SDS011;30973;51.442;3.580;2023-02-14T16:36:03;45.20;;;31.50;;
45236;SDS011;30973;51.442;3.580;2023-02-14T16:38:33;44.97;;;30.48;;
45236;SDS011;30973;51.442;3.580;2023-02-14T16:41:01;43.55;;;30.00;;
45236;SDS011;30973;51.442;3.580;2023-02-14T16:43:28;41.65;;;31.40;;
45236;SDS011;30973;51.442;3.580;2023-02-14T16:45:55;49.00;;;31.08;;
45236;SDS011;30973;51.442;3.580;2023-02-14T16:48:22;44.92;;;31.40;;
45236;SDS011;30973;51.442;3.580;2023-02-14T16:50:48;48.30;;;33.90;;
45236;SDS011;30973;51.442;3.580;2023-02-14T16:53:23;44.58;;;31.30;;
45236;SDS011;30973;51.442;3.580;2023-02-14T16:55:51;50.25;;;32.15;;
45236;SDS011;30973;51.442;3.580;2023-02-14T16:58:18;43.58;;;30.88;;
45236;SDS011;30973;51.442;3.580;2023-02-14T17:00:46;45.60;;;31.40;;
45236;SDS011;30973;51.442;3.580;2023-02-14T17:03:12;48.90;;;32.42;;
45236;SDS011;30973;51.442;3.580;2023-02-14T17:05:39;53.45;;;32.97;;
45236;SDS011;30973;51.442;3.580;2023-02-14T17:08:07;51.22;;;32.95;;
45236;SDS011;30973;51.442;3.580;2023-02-14T17:10:34;47.25;;;31.77;;
45236;SDS011;30973;51.442;3.580;2023-02-14T17:13:01;48.45;;;33.75;;
45236;SDS011;30973;51.442;3.580;2023-02-14T17:15:28;49.85;;;31.80;;
45236;SDS011;30973;51.442;3.580;2023-02-14T17:17:56;48.17;;;31.85;;
45236;SDS011;30973;51.442;3.580;2023-02-14T17:20:24;41.90;;;29.45;;